sensor_id;sensor_type;location;lat;lon;timestamp;pressure;altitude;pressure_sealevel;temperature;humidity
73306;BME280;61530;51.158;0.880;2023-02-15T00:00:11;1024.17;;;0.9375;35.1258
73306;BME280;61530;51.158;0.880;2023-02-15T00:01:13;1024.13;;;0.875;35.0645
73306;BME280;61530;51.158;0.880;2023-02-15T00:02:18;1024.12;;;0.8125;35.8332
73306;BME280;61530;51.158;0.880;2023-02-15T00:03:22;1024.11;;;0.8125;35.4313
73306;BME280;61530;51.158;0.880;2023-02-15T00:04:26;1024.11;;;0.6875;34.9965
73306;BME280;61530;51.158;0.880;2023-02-15T00:05:30;1024.1;;;0.6875;35.2957
73306;BME280;61530;51.158;0.880;2023-02-15T00:06:35;1024.08;;;0.6875;35.3525
73306;BME280;61530;51.158;0.880;2023-02-15T00:07:38;1024.07;;;0.75;35.1651
73306;BME280;61530;51.158;0.880;2023-02-15T00:08:42;1024.04;;;0.75;34.9842
73306;BME280;61530;51.158;0.880;2023-02-15T00:09:46;1024.04;;;0.8125;35.6132
73306;BME280;61530;51.158;0.880;2023-02-15T00:10:50;1024.03;;;0.8125;35.8958
73306;BME280;61530;51.158;0.880;2023-02-15T00:11:54;1024.01;;;0.75;34.8101
73306;BME280;61530;51.158;0.880;2023-02-15T00:13:00;1023.99;;;0.875;35.4711
73306;BME280;61530;51.158;0.880;2023-02-15T00:14:01;1024.0;;;0.8125;35.2733
73306;BME280;61530;51.158;0.880;2023-02-15T00:15:07;1024.02;;;0.8125;35.9062
73306;BME280;61530;51.158;0.880;2023-02-15T00:16:11;1023.98;;;0.75;35.4363
73306;BME280;61530;51.158;0.880;2023-02-15T00:17:14;1023.97;;;0.75;35.1665
73306;BME280;61530;51.158;0.880;2023-02-15T00:18:17;1023.97;;;0.8125;35.3284
73306;BME280;61530;51.158;0.880;2023-02-15T00:19:22;1023.92;;;0.75;35.2661
73306;BME280;61530;51.158;0.880;2023-02-15T00:20:26;1023.92;;;0.8125;35.2561
73306;BME280;61530;51.158;0.880;2023-02-15T00:21:32;1023.93;;;0.75;34.6844
73306;BME280;61530;51.158;0.880;2023-02-15T00:22:33;1023.92;;;0.75;34.8105
73306;BME280;61530;51.158;0.880;2023-02-15T00:23:38;1023.89;;;0.5625;35.449
73306;BME280;61530;51.158;0.880;2023-02-15T00:24:42;1023.89;;;0.6875;35.2395
73306;BME280;61530;51.158;0.880;2023-02-15T00:25:46;1023.84;;;0.75;35.5784
73306;BME280;61530;51.158;0.880;2023-02-15T00:26:49;1023.87;;;0.75;35.4875
73306;BME280;61530;51.158;0.880;2023-02-15T00:27:54;1023.87;;;0.6875;34.7244
73306;BME280;61530;51.158;0.880;2023-02-15T00:28:59;1023.84;;;0.625;34.8842
73306;BME280;61530;51.158;0.880;2023-02-15T00:30:03;1023.81;;;0.625;35.5509
73306;BME280;61530;51.158;0.880;2023-02-15T00:31:07;1023.83;;;0.6875;35.9533
73306;BME280;61530;51.158;0.880;2023-02-15T00:32:10;1023.82;;;0.6875;35.1436
73306;BME280;61530;51.158;0.880;2023-02-15T00:33:14;1023.82;;;0.75;35.1255
73306;BME280;61530;51.158;0.880;2023-02-15T00:34:19;1023.87;;;0.75;34.808
73306;BME280;61530;51.158;0.880;2023-02-15T00:35:21;1023.87;;;0.6875;34.9333
73306;BME280;61530;51.158;0.880;2023-02-15T00:36:26;1023.85;;;0.625;34.811
73306;BME280;61530;51.158;0.880;2023-02-15T00:37:30;1023.87;;;0.5625;34.6441
73306;BME280;61530;51.158;0.880;2023-02-15T00:38:35;1023.86;;;0.625;35.2718
73306;BME280;61530;51.158;0.880;2023-02-15T00:39:37;1023.85;;;0.6875;34.9662
73306;BME280;61530;51.158;0.880;2023-02-15T00:40:42;1023.84;;;0.75;34.9663
73306;BME280;61530;51.158;0.880;2023-02-15T00:41:46;1023.84;;;0.6875;35.5036
73306;BME280;61530;51.158;0.880;2023-02-15T00:42:50;1023.81;;;0.625;34.4024
73306;BME280;61530;51.158;0.880;2023-02-15T00:43:53;1023.82;;;0.6875;35.0574
73306;BME280;61530;51.158;0.880;2023-02-15T00:44:58;1023.82;;;0.625;34.041
73306;BME280;61530;51.158;0.880;2023-02-15T00:46:03;1023.79;;;0.5;34.5955
73306;BME280;61530;51.158;0.880;2023-02-15T00:47:06;1023.79;;;0.4375;34.9793
73306;BME280;61530;51.158;0.880;2023-02-15T00:48:09;1023.79;;;0.5625;34.8146
73306;BME280;61530;51.158;0.880;2023-02-15T00:49:14;1023.8;;;0.5625;35.4947
73306;BME280;61530;51.158;0.880;2023-02-15T00:50:18;1023.76;;;0.5625;35.5284
73306;BME280;61530;51.158;0.880;2023-02-15T00:51:22;1023.77;;;0.5625;34.9099
73306;BME280;61530;51.158;0.880;2023-02-15T00:52:25;1023.7;;;0.625;34.7078
73306;BME280;61530;51.158;0.880;2023-02-15T00:53:31;1023.71;;;0.5625;34.7648
73306;BME280;61530;51.158;0.880;2023-02-15T00:54:34;1023.7;;;0.5625;34.4493
73306;BME280;61530;51.158;0.880;2023-02-15T00:55:38;1023.65;;;0.5625;34.812
73306;BME280;61530;51.158;0.880;2023-02-15T00:56:41;1023.62;;;0.4375;35.4681
73306;BME280;61530;51.158;0.880;2023-02-15T00:57:46;1023.57;;;0.5;35.2218
73306;BME280;61530;51.158;0.880;2023-02-15T00:58:49;1023.57;;;0.25;35.8056
73306;BME280;61530;51.158;0.880;2023-02-15T00:59:54;1023.57;;;0.3125;35.6858
73306;BME280;61530;51.158;0.880;2023-02-15T01:01:04;1023.61;;;0.25;35.1992
73306;BME280;61530;51.158;0.880;2023-02-15T01:02:02;1023.56;;;0.3125;35.3051
73306;BME280;61530;51.158;0.880;2023-02-15T01:03:06;1023.55;;;0.3125;35.1935
73306;BME280;61530;51.158;0.880;2023-02-15T01:04:10;1023.55;;;0.375;35.2814
73306;BME280;61530;51.158;0.880;2023-02-15T01:05:13;1023.53;;;0.25;35.5598
73306;BME280;61530;51.158;0.880;2023-02-15T01:06:18;1023.54;;;0.3125;35.5038
73306;BME280;61530;51.158;0.880;2023-02-15T01:07:21;1023.53;;;0.3125;35.7014
73306;BME280;61530;51.158;0.880;2023-02-15T01:08:26;1023.53;;;0.3125;36.0793
73306;BME280;61530;51.158;0.880;2023-02-15T01:09:29;1023.5;;;0.1875;35.4572
73306;BME280;61530;51.158;0.880;2023-02-15T01:10:35;1023.49;;;0.25;34.6895
73306;BME280;61530;51.158;0.880;2023-02-15T01:11:37;1023.51;;;0.25;35.3554
73306;BME280;61530;51.158;0.880;2023-02-15T01:12:42;1023.48;;;0.3125;36.0231
73306;BME280;61530;51.158;0.880;2023-02-15T01:13:45;1023.46;;;0.3125;35.2879
73306;BME280;61530;51.158;0.880;2023-02-15T01:14:50;1023.52;;;0.3125;36.1015
73306;BME280;61530;51.158;0.880;2023-02-15T01:15:54;1023.5;;;0.375;35.4063
73306;BME280;61530;51.158;0.880;2023-02-15T01:16:58;1023.51;;;0.375;36.0569
73306;BME280;61530;51.158;0.880;2023-02-15T01:18:02;1023.47;;;0.375;35.3329
73306;BME280;61530;51.158;0.880;2023-02-15T01:19:06;1023.46;;;0.375;35.1409
73306;BME280;61530;51.158;0.880;2023-02-15T01:20:10;1023.45;;;0.375;34.9371
73306;BME280;61530;51.158;0.880;2023-02-15T01:21:16;1023.4;;;0.375;34.6941
73306;BME280;61530;51.158;0.880;2023-02-15T01:22:17;1023.4;;;0.375;34.9606
73306;BME280;61530;51.158;0.880;2023-02-15T01:23:22;1023.37;;;0.375;35.5197
73306;BME280;61530;51.158;0.880;2023-02-15T01:24:25;1023.37;;;0.375;35.1864
73306;BME280;61530;51.158;0.880;2023-02-15T01:25:30;1023.35;;;0.375;35.204
73306;BME280;61530;51.158;0.880;2023-02-15T01:26:33;1023.33;;;0.375;36.2157
73306;BME280;61530;51.158;0.880;2023-02-15T01:27:38;1023.36;;;0.375;35.3906
73306;BME280;61530;51.158;0.880;2023-02-15T01:28:42;1023.39;;;0.375;35.8986
73306;BME280;61530;51.158;0.880;2023-02-15T01:29:46;1023.38;;;0.3125;35.2537
73306;BME280;61530;51.158;0.880;2023-02-15T01:30:49;1023.39;;;0.4375;35.4394
73306;BME280;61530;51.158;0.880;2023-02-15T01:31:54;1023.39;;;0.5;35.9488
73306;BME280;61530;51.158;0.880;2023-02-15T01:32:58;1023.43;;;0.5;34.9031
73306;BME280;61530;51.158;0.880;2023-02-15T01:34:02;1023.45;;;0.5;35.3145
73306;BME280;61530;51.158;0.880;2023-02-15T01:35:06;1023.42;;;0.4375;35.2631
73306;BME280;61530;51.158;0.880;2023-02-15T01:36:10;1023.43;;;0.5;35.1113
73306;BME280;61530;51.158;0.880;2023-02-15T01:37:13;1023.42;;;0.4375;35.072
73306;BME280;61530;51.158;0.880;2023-02-15T01:38:18;1023.44;;;0.375;35.1169
73306;BME280;61530;51.158;0.880;2023-02-15T01:39:21;1023.4;;;0.4375;36.0907
73306;BME280;61530;51.158;0.880;2023-02-15T01:40:26;1023.4;;;0.4375;35.301
73306;BME280;61530;51.158;0.880;2023-02-15T01:41:30;1023.36;;;0.4375;35.5529
73306;BME280;61530;51.158;0.880;2023-02-15T01:42:34;1023.32;;;0.4375;35.2361
73306;BME280;61530;51.158;0.880;2023-02-15T01:43:40;1023.29;;;0.4375;35.6884
73306;BME280;61530;51.158;0.880;2023-02-15T01:44:51;1023.27;;;0.5;35.5587
73306;BME280;61530;51.158;0.880;2023-02-15T01:45:48;1023.25;;;0.5;34.8851
73306;BME280;61530;51.158;0.880;2023-02-15T01:46:52;1023.25;;;0.5625;34.6086
73306;BME280;61530;51.158;0.880;2023-02-15T01:47:58;1023.26;;;0.5625;35.8014
73306;BME280;61530;51.158;0.880;2023-02-15T01:49:05;1023.22;;;0.5625;35.6833
73306;BME280;61530;51.158;0.880;2023-02-15T01:50:08;1023.22;;;0.5;35.1281
73306;BME280;61530;51.158;0.880;2023-02-15T01:51:06;1023.21;;;0.4375;34.9089
73306;BME280;61530;51.158;0.880;2023-02-15T01:52:11;1023.23;;;0.5625;34.6864
73306;BME280;61530;51.158;0.880;2023-02-15T01:53:18;1023.21;;;0.5625;34.6424
73306;BME280;61530;51.158;0.880;2023-02-15T01:54:21;1023.18;;;0.625;34.683
73306;BME280;61530;51.158;0.880;2023-02-15T01:55:25;1023.19;;;0.5625;35.5593
73306;BME280;61530;51.158;0.880;2023-02-15T01:56:29;1023.2;;;0.5625;35.2076
73306;BME280;61530;51.158;0.880;2023-02-15T01:57:30;1023.21;;;0.5625;35.6323
73306;BME280;61530;51.158;0.880;2023-02-15T01:58:34;1023.22;;;0.5625;35.7907
73306;BME280;61530;51.158;0.880;2023-02-15T01:59:39;1023.17;;;0.5625;35.8071
73306;BME280;61530;51.158;0.880;2023-02-15T02:00:41;1023.18;;;0.5;35.0947
73306;BME280;61530;51.158;0.880;2023-02-15T02:01:46;1023.17;;;0.5625;35.2525
73306;BME280;61530;51.158;0.880;2023-02-15T02:02:53;1023.19;;;0.5;35.0721
73306;BME280;61530;51.158;0.880;2023-02-15T02:03:59;1023.2;;;0.5625;35.3208
73306;BME280;61530;51.158;0.880;2023-02-15T02:04:59;1023.19;;;0.5625;35.6839
73306;BME280;61530;51.158;0.880;2023-02-15T02:06:02;1023.13;;;0.5;35.1065
73306;BME280;61530;51.158;0.880;2023-02-15T02:07:07;1023.14;;;0.375;34.9484
73306;BME280;61530;51.158;0.880;2023-02-15T02:08:10;1023.09;;;0.4375;34.8586
73306;BME280;61530;51.158;0.880;2023-02-15T02:09:13;1023.07;;;0.5;35.2944
73306;BME280;61530;51.158;0.880;2023-02-15T02:10:21;1023.07;;;0.4375;34.8927
73306;BME280;61530;51.158;0.880;2023-02-15T02:11:22;1023.05;;;0.4375;35.6725
73306;BME280;61530;51.158;0.880;2023-02-15T02:12:26;1023.03;;;0.375;36.3286
73306;BME280;61530;51.158;0.880;2023-02-15T02:13:29;1023.06;;;0.4375;35.8081
73306;BME280;61530;51.158;0.880;2023-02-15T02:14:34;1023.03;;;0.4375;34.8362
73306;BME280;61530;51.158;0.880;2023-02-15T02:15:44;1023.02;;;0.4375;36.0857
73306;BME280;61530;51.158;0.880;2023-02-15T02:16:48;1022.99;;;0.4375;35.3224
73306;BME280;61530;51.158;0.880;2023-02-15T02:17:56;1022.98;;;0.375;35.4519
73306;BME280;61530;51.158;0.880;2023-02-15T02:19:01;1022.97;;;0.5;35.2091
73306;BME280;61530;51.158;0.880;2023-02-15T02:20:15;1022.92;;;0.375;35.6499
73306;BME280;61530;51.158;0.880;2023-02-15T02:21:09;1022.9;;;0.375;36.3401
73306;BME280;61530;51.158;0.880;2023-02-15T02:22:42;1022.88;;;0.375;36.0574
73306;BME280;61530;51.158;0.880;2023-02-15T02:23:21;1022.86;;;0.375;34.8187
73306;BME280;61530;51.158;0.880;2023-02-15T02:24:57;1022.81;;;0.3125;35.5595
73306;BME280;61530;51.158;0.880;2023-02-15T02:25:28;1022.8;;;0.3125;35.1634
73306;BME280;61530;51.158;0.880;2023-02-15T02:27:10;1022.75;;;0.4375;35.9952
73306;BME280;61530;51.158;0.880;2023-02-15T02:27:26;1022.78;;;0.3125;35.9893
73306;BME280;61530;51.158;0.880;2023-02-15T02:28:45;1022.73;;;0.375;35.1658
73306;BME280;61530;51.158;0.880;2023-02-15T02:31:43;1022.74;;;0.3125;35.4347
73306;BME280;61530;51.158;0.880;2023-02-15T02:33:48;1022.7;;;0.25;35.4512
73306;BME280;61530;51.158;0.880;2023-02-15T02:34:26;1022.67;;;0.3125;35.2535
73306;BME280;61530;51.158;0.880;2023-02-15T02:35:27;1022.65;;;0.375;35.1897
73306;BME280;61530;51.158;0.880;2023-02-15T02:36:31;1022.64;;;0.5;35.2408
73306;BME280;61530;51.158;0.880;2023-02-15T02:37:33;1022.64;;;0.5;35.2407
73306;BME280;61530;51.158;0.880;2023-02-15T02:38:46;1022.66;;;0.5;35.5015
73306;BME280;61530;51.158;0.880;2023-02-15T02:39:41;1022.62;;;0.5;36.0439
73306;BME280;61530;51.158;0.880;2023-02-15T02:40:48;1022.65;;;0.5;35.6148
73306;BME280;61530;51.158;0.880;2023-02-15T02:41:51;1022.62;;;0.4375;35.5076
73306;BME280;61530;51.158;0.880;2023-02-15T02:42:56;1022.6;;;0.4375;34.7157
73306;BME280;61530;51.158;0.880;2023-02-15T02:43:58;1022.6;;;0.4375;35.3273
73306;BME280;61530;51.158;0.880;2023-02-15T02:45:03;1022.54;;;0.375;35.2869
73306;BME280;61530;51.158;0.880;2023-02-15T02:46:06;1022.53;;;0.375;35.264
73306;BME280;61530;51.158;0.880;2023-02-15T02:47:09;1022.5;;;0.4375;35.2019
73306;BME280;61530;51.158;0.880;2023-02-15T02:48:13;1022.49;;;0.5;34.8509
73306;BME280;61530;51.158;0.880;2023-02-15T02:49:14;1022.51;;;0.4375;35.0292
73306;BME280;61530;51.158;0.880;2023-02-15T02:50:22;1022.51;;;0.375;35.6446
73306;BME280;61530;51.158;0.880;2023-02-15T02:51:22;1022.46;;;0.4375;34.9377
73306;BME280;61530;51.158;0.880;2023-02-15T02:52:38;1022.42;;;0.375;35.378
73306;BME280;61530;51.158;0.880;2023-02-15T02:53:30;1022.36;;;0.375;34.6824
73306;BME280;61530;51.158;0.880;2023-02-15T02:54:34;1022.34;;;0.375;35.0051
73306;BME280;61530;51.158;0.880;2023-02-15T02:55:40;1022.37;;;0.375;35.2451
73306;BME280;61530;51.158;0.880;2023-02-15T02:56:44;1022.36;;;0.3125;35.447
73306;BME280;61530;51.158;0.880;2023-02-15T02:57:53;1022.31;;;0.3125;34.9942
73306;BME280;61530;51.158;0.880;2023-02-15T02:58:54;1022.31;;;0.3125;35.2672
73306;BME280;61530;51.158;0.880;2023-02-15T02:59:55;1022.25;;;0.3125;35.2939
73306;BME280;61530;51.158;0.880;2023-02-15T03:01:02;1022.21;;;0.3125;35.3114
73306;BME280;61530;51.158;0.880;2023-02-15T03:02:05;1022.22;;;0.25;35.481
73306;BME280;61530;51.158;0.880;2023-02-15T03:03:08;1022.24;;;0.25;34.9615
73306;BME280;61530;51.158;0.880;2023-02-15T03:04:13;1022.22;;;0.25;35.8031
73306;BME280;61530;51.158;0.880;2023-02-15T03:05:16;1022.16;;;0.25;35.0667
73306;BME280;61530;51.158;0.880;2023-02-15T03:06:20;1022.16;;;0.25;34.7163
73306;BME280;61530;51.158;0.880;2023-02-15T03:07:23;1022.16;;;0.3125;34.5417
73306;BME280;61530;51.158;0.880;2023-02-15T03:08:30;1022.16;;;0.3125;34.4404
73306;BME280;61530;51.158;0.880;2023-02-15T03:09:31;1022.18;;;0.25;34.8638
73306;BME280;61530;51.158;0.880;2023-02-15T03:10:35;1022.17;;;0.25;34.9033
73306;BME280;61530;51.158;0.880;2023-02-15T03:11:37;1022.13;;;0.25;35.0783
73306;BME280;61530;51.158;0.880;2023-02-15T03:12:42;1022.13;;;0.3125;34.6994
73306;BME280;61530;51.158;0.880;2023-02-15T03:13:48;1022.11;;;0.1875;35.2985
73306;BME280;61530;51.158;0.880;2023-02-15T03:14:52;1022.12;;;0.25;35.1181
73306;BME280;61530;51.158;0.880;2023-02-15T03:15:54;1022.12;;;0.375;35.155
73306;BME280;61530;51.158;0.880;2023-02-15T03:16:58;1022.1;;;0.3125;35.2426
73306;BME280;61530;51.158;0.880;2023-02-15T03:18:02;1022.13;;;0.375;35.6452
73306;BME280;61530;51.158;0.880;2023-02-15T03:19:09;1022.12;;;0.3125;35.0626
73306;BME280;61530;51.158;0.880;2023-02-15T03:20:15;1022.13;;;0.375;35.3391
73306;BME280;61530;51.158;0.880;2023-02-15T03:21:14;1022.13;;;0.375;35.3064
73306;BME280;61530;51.158;0.880;2023-02-15T03:22:21;1022.09;;;0.375;35.6044
73306;BME280;61530;51.158;0.880;2023-02-15T03:23:23;1022.07;;;0.4375;35.6943
73306;BME280;61530;51.158;0.880;2023-02-15T03:24:29;1022.1;;;0.4375;35.0433
73306;BME280;61530;51.158;0.880;2023-02-15T03:25:33;1022.05;;;0.375;35.8529
73306;BME280;61530;51.158;0.880;2023-02-15T03:26:34;1022.05;;;0.4375;35.5121
73306;BME280;61530;51.158;0.880;2023-02-15T03:27:40;1022.04;;;0.5625;34.7999
73306;BME280;61530;51.158;0.880;2023-02-15T03:28:43;1022.02;;;0.5625;34.851
73306;BME280;61530;51.158;0.880;2023-02-15T03:29:47;1022.01;;;0.5625;35.2801
73306;BME280;61530;51.158;0.880;2023-02-15T03:30:53;1021.98;;;0.5625;35.1667
73306;BME280;61530;51.158;0.880;2023-02-15T03:31:56;1021.96;;;0.5;34.9693
73306;BME280;61530;51.158;0.880;2023-02-15T03:32:59;1021.98;;;0.5;35.5801
73306;BME280;61530;51.158;0.880;2023-02-15T03:34:04;1021.95;;;0.5625;35.2908
73306;BME280;61530;51.158;0.880;2023-02-15T03:35:06;1021.96;;;0.5625;35.0715
73306;BME280;61530;51.158;0.880;2023-02-15T03:36:14;1021.95;;;0.5625;34.9684
73306;BME280;61530;51.158;0.880;2023-02-15T03:37:17;1021.97;;;0.5625;35.7607
73306;BME280;61530;51.158;0.880;2023-02-15T03:38:20;1021.94;;;0.625;35.2907
73306;BME280;61530;51.158;0.880;2023-02-15T03:39:25;1021.92;;;0.625;35.1604
73306;BME280;61530;51.158;0.880;2023-02-15T03:40:29;1021.91;;;0.625;35.2738
73306;BME280;61530;51.158;0.880;2023-02-15T03:41:34;1021.88;;;0.625;34.8096
73306;BME280;61530;51.158;0.880;2023-02-15T03:42:39;1021.87;;;0.6875;34.7642
73306;BME280;61530;51.158;0.880;2023-02-15T03:43:44;1021.88;;;0.625;34.7539
73306;BME280;61530;51.158;0.880;2023-02-15T03:44:49;1021.88;;;0.625;35.563
73306;BME280;61530;51.158;0.880;2023-02-15T03:45:48;1021.87;;;0.5625;35.7896
73306;BME280;61530;51.158;0.880;2023-02-15T03:46:55;1021.83;;;0.625;35.7613
73306;BME280;61530;51.158;0.880;2023-02-15T03:47:56;1021.82;;;0.625;35.6201
73306;BME280;61530;51.158;0.880;2023-02-15T03:49:01;1021.78;;;0.625;35.0077
73306;BME280;61530;51.158;0.880;2023-02-15T03:50:04;1021.81;;;0.5625;35.274
73306;BME280;61530;51.158;0.880;2023-02-15T03:51:08;1021.79;;;0.625;34.8268
73306;BME280;61530;51.158;0.880;2023-02-15T03:52:11;1021.8;;;0.5;35.4783
73306;BME280;61530;51.158;0.880;2023-02-15T03:53:16;1021.78;;;0.5;35.1383
73306;BME280;61530;51.158;0.880;2023-02-15T03:54:20;1021.8;;;0.5625;35.1103
73306;BME280;61530;51.158;0.880;2023-02-15T03:55:22;1021.83;;;0.5;35.3253
73306;BME280;61530;51.158;0.880;2023-02-15T03:56:26;1021.79;;;0.5625;35.019
73306;BME280;61530;51.158;0.880;2023-02-15T03:57:30;1021.78;;;0.625;34.8096
73306;BME280;61530;51.158;0.880;2023-02-15T03:58:33;1021.82;;;0.5;35.2286
73306;BME280;61530;51.158;0.880;2023-02-15T03:59:38;1021.81;;;0.5625;35.1942
73306;BME280;61530;51.158;0.880;2023-02-15T04:00:48;1021.85;;;0.625;35.053
73306;BME280;61530;51.158;0.880;2023-02-15T04:01:55;1021.85;;;0.625;35.4891
73306;BME280;61530;51.158;0.880;2023-02-15T04:03:02;1021.84;;;0.5625;35.2513
73306;BME280;61530;51.158;0.880;2023-02-15T04:03:57;1021.82;;;0.625;34.9289
73306;BME280;61530;51.158;0.880;2023-02-15T04:04:57;1021.86;;;0.5625;35.5226
73306;BME280;61530;51.158;0.880;2023-02-15T04:06:03;1021.83;;;0.5625;35.4948
73306;BME280;61530;51.158;0.880;2023-02-15T04:07:07;1021.82;;;0.5;34.6854
73306;BME280;61530;51.158;0.880;2023-02-15T04:08:11;1021.8;;;0.5625;34.9453
73306;BME280;61530;51.158;0.880;2023-02-15T04:09:14;1021.83;;;0.5625;35.0012
73306;BME280;61530;51.158;0.880;2023-02-15T04:10:18;1021.82;;;0.5625;35.5789
73306;BME280;61530;51.158;0.880;2023-02-15T04:11:21;1021.84;;;0.5625;35.3971
73306;BME280;61530;51.158;0.880;2023-02-15T04:12:26;1021.84;;;0.625;34.8082
73306;BME280;61530;51.158;0.880;2023-02-15T04:13:31;1021.82;;;0.6875;34.576
73306;BME280;61530;51.158;0.880;2023-02-15T04:14:34;1021.82;;;0.6875;34.9055
73306;BME280;61530;51.158;0.880;2023-02-15T04:15:37;1021.83;;;0.6875;35.0917
73306;BME280;61530;51.158;0.880;2023-02-15T04:16:42;1021.83;;;0.6875;35.5616
73306;BME280;61530;51.158;0.880;2023-02-15T04:17:45;1021.88;;;0.75;35.2494
73306;BME280;61530;51.158;0.880;2023-02-15T04:18:50;1021.89;;;0.75;35.1243
73306;BME280;61530;51.158;0.880;2023-02-15T04:19:53;1021.87;;;0.8125;35.0791
73306;BME280;61530;51.158;0.880;2023-02-15T04:20:58;1021.87;;;0.75;35.1584
73306;BME280;61530;51.158;0.880;2023-02-15T04:22:01;1021.87;;;0.8125;35.0503
73306;BME280;61530;51.158;0.880;2023-02-15T04:23:06;1021.91;;;0.75;34.831
73306;BME280;61530;51.158;0.880;2023-02-15T04:24:10;1021.87;;;0.75;35.7372
73306;BME280;61530;51.158;0.880;2023-02-15T04:25:14;1021.89;;;0.625;35.1203
73306;BME280;61530;51.158;0.880;2023-02-15T04:26:17;1021.91;;;0.625;35.5098
73306;BME280;61530;51.158;0.880;2023-02-15T04:27:21;1021.93;;;0.8125;34.9435
73306;BME280;61530;51.158;0.880;2023-02-15T04:28:25;1021.93;;;0.75;34.8135
73306;BME280;61530;51.158;0.880;2023-02-15T04:29:30;1021.89;;;0.75;34.8986
73306;BME280;61530;51.158;0.880;2023-02-15T04:30:33;1021.87;;;0.75;34.8596
73306;BME280;61530;51.158;0.880;2023-02-15T04:31:37;1021.86;;;0.75;34.9339
73306;BME280;61530;51.158;0.880;2023-02-15T04:32:41;1021.88;;;0.8125;35.6363
73306;BME280;61530;51.158;0.880;2023-02-15T04:33:46;1021.85;;;0.75;35.2225
73306;BME280;61530;51.158;0.880;2023-02-15T04:34:49;1021.86;;;0.75;35.0588
73306;BME280;61530;51.158;0.880;2023-02-15T04:35:53;1021.85;;;0.6875;35.0759
73306;BME280;61530;51.158;0.880;2023-02-15T04:36:57;1021.84;;;0.6875;35.2855
73306;BME280;61530;51.158;0.880;2023-02-15T04:38:02;1021.84;;;0.75;35.4778
73306;BME280;61530;51.158;0.880;2023-02-15T04:39:06;1021.81;;;0.6875;35.7153
73306;BME280;61530;51.158;0.880;2023-02-15T04:40:12;1021.81;;;0.625;36.2806
73306;BME280;61530;51.158;0.880;2023-02-15T04:41:13;1021.79;;;0.6875;35.4203
73306;BME280;61530;51.158;0.880;2023-02-15T04:42:18;1021.77;;;0.6875;35.3925
73306;BME280;61530;51.158;0.880;2023-02-15T04:43:21;1021.78;;;0.8125;36.1669
73306;BME280;61530;51.158;0.880;2023-02-15T04:44:26;1021.73;;;0.875;35.2508
73306;BME280;61530;51.158;0.880;2023-02-15T04:45:29;1021.74;;;0.875;35.2849
73306;BME280;61530;51.158;0.880;2023-02-15T04:46:34;1021.71;;;0.8125;35.5223
73306;BME280;61530;51.158;0.880;2023-02-15T04:47:37;1021.74;;;0.875;35.3753
73306;BME280;61530;51.158;0.880;2023-02-15T04:48:41;1021.77;;;0.875;35.4186
73306;BME280;61530;51.158;0.880;2023-02-15T04:49:45;1021.74;;;0.9375;35.7751
73306;BME280;61530;51.158;0.880;2023-02-15T04:50:50;1021.73;;;1.0;35.4973
73306;BME280;61530;51.158;0.880;2023-02-15T04:51:53;1021.73;;;1.0;36.2678
73306;BME280;61530;51.158;0.880;2023-02-15T04:52:57;1021.73;;;1.0625;35.4007
73306;BME280;61530;51.158;0.880;2023-02-15T04:54:01;1021.73;;;1.125;35.3716
73306;BME280;61530;51.158;0.880;2023-02-15T04:55:07;1021.71;;;1.0625;35.8933
73306;BME280;61530;51.158;0.880;2023-02-15T04:56:09;1021.73;;;1.125;35.2012
73306;BME280;61530;51.158;0.880;2023-02-15T04:57:14;1021.68;;;1.125;35.5069
73306;BME280;61530;51.158;0.880;2023-02-15T04:58:17;1021.7;;;1.1875;35.116
73306;BME280;61530;51.158;0.880;2023-02-15T04:59:22;1021.7;;;1.25;35.7387
73306;BME280;61530;51.158;0.880;2023-02-15T05:00:25;1021.68;;;1.3125;36.0173
73306;BME280;61530;51.158;0.880;2023-02-15T05:01:30;1021.67;;;1.25;35.6095
73306;BME280;61530;51.158;0.880;2023-02-15T05:02:33;1021.67;;;1.25;35.3707
73306;BME280;61530;51.158;0.880;2023-02-15T05:03:38;1021.69;;;1.3125;34.8047
73306;BME280;61530;51.158;0.880;2023-02-15T05:04:41;1021.72;;;1.25;35.2797
73306;BME280;61530;51.158;0.880;2023-02-15T05:05:46;1021.7;;;1.3125;35.3532
73306;BME280;61530;51.158;0.880;2023-02-15T05:06:49;1021.7;;;1.3125;35.3588
73306;BME280;61530;51.158;0.880;2023-02-15T05:07:54;1021.66;;;1.25;35.4151
73306;BME280;61530;51.158;0.880;2023-02-15T05:08:58;1021.67;;;1.3125;35.2444
73306;BME280;61530;51.158;0.880;2023-02-15T05:10:02;1021.68;;;1.375;35.0513
73306;BME280;61530;51.158;0.880;2023-02-15T05:11:05;1021.64;;;1.3125;35.0802
73306;BME280;61530;51.158;0.880;2023-02-15T05:12:10;1021.63;;;1.375;35.5798
73306;BME280;61530;51.158;0.880;2023-02-15T05:13:13;1021.62;;;1.4375;35.222
73306;BME280;61530;51.158;0.880;2023-02-15T05:14:18;1021.62;;;1.4375;35.5508
73306;BME280;61530;51.158;0.880;2023-02-15T05:15:21;1021.58;;;1.375;35.4419
73306;BME280;61530;51.158;0.880;2023-02-15T05:16:26;1021.59;;;1.5;35.1528
73306;BME280;61530;51.158;0.880;2023-02-15T05:17:29;1021.57;;;1.5;35.2551
73306;BME280;61530;51.158;0.880;2023-02-15T05:18:34;1021.54;;;1.4375;35.272
73306;BME280;61530;51.158;0.880;2023-02-15T05:19:37;1021.56;;;1.4375;35.7088
73306;BME280;61530;51.158;0.880;2023-02-15T05:20:42;1021.53;;;1.5;35.5276
73306;BME280;61530;51.158;0.880;2023-02-15T05:21:45;1021.48;;;1.5;35.9352
73306;BME280;61530;51.158;0.880;2023-02-15T05:22:53;1021.49;;;1.5625;35.2835
73306;BME280;61530;51.158;0.880;2023-02-15T05:23:53;1021.51;;;1.5;35.3611
73306;BME280;61530;51.158;0.880;2023-02-15T05:24:58;1021.54;;;1.5625;35.2699
73306;BME280;61530;51.158;0.880;2023-02-15T05:26:02;1021.52;;;1.5625;35.5658
73306;BME280;61530;51.158;0.880;2023-02-15T05:27:06;1021.51;;;1.625;35.1455
73306;BME280;61530;51.158;0.880;2023-02-15T05:28:10;1021.49;;;1.625;35.4575
73306;BME280;61530;51.158;0.880;2023-02-15T05:29:14;1021.47;;;1.625;35.4122
73306;BME280;61530;51.158;0.880;2023-02-15T05:30:17;1021.43;;;1.5625;35.0822
73306;BME280;61530;51.158;0.880;2023-02-15T05:31:22;1021.45;;;1.625;34.8999
73306;BME280;61530;51.158;0.880;2023-02-15T05:32:25;1021.42;;;1.6875;35.0467
73306;BME280;61530;51.158;0.880;2023-02-15T05:33:30;1021.42;;;1.625;35.2234
73306;BME280;61530;51.158;0.880;2023-02-15T05:34:33;1021.4;;;1.6875;35.0984
73306;BME280;61530;51.158;0.880;2023-02-15T05:35:37;1021.36;;;1.625;35.0479
73306;BME280;61530;51.158;0.880;2023-02-15T05:36:41;1021.33;;;1.6875;35.0867